createdAt,value
2023-07-07T00:02:50.163Z,22.14
2023-07-07T00:05:57.361Z,21.66
2023-07-07T00:09:02.904Z,21.54
2023-07-07T00:12:07.128Z,21.26
2023-07-07T00:15:11.385Z,21.18
2023-07-07T00:18:15.673Z,21.69
2023-07-07T00:21:21.272Z,22.03
2023-07-07T00:24:25.554Z,22.06
2023-07-07T00:27:29.716Z,21.73
2023-07-07T00:30:35.167Z,21.75
2023-07-07T00:33:39.339Z,22.07
2023-07-07T00:36:43.279Z,21.92
2023-07-07T00:39:49.560Z,21.55
2023-07-07T00:42:53.692Z,21.43
2023-07-07T00:45:57.899Z,21.18
2023-07-07T00:49:01.764Z,21.86
2023-07-07T00:52:05.807Z,22.03
2023-07-07T00:55:10.469Z,21.63
2023-07-07T00:58:14.670Z,21.51
2023-07-07T01:01:21.044Z,21.59
2023-07-07T01:04:24.785Z,20.73
2023-07-07T01:07:33.518Z,20.51
2023-07-07T01:10:37.731Z,20.15
2023-07-07T01:13:43.205Z,20.22
2023-07-07T01:16:51.136Z,20.10
2023-07-07T01:19:55.095Z,19.77
2023-07-07T01:23:00.250Z,19.99
2023-07-07T01:26:05.841Z,20.50
2023-07-07T01:29:11.065Z,20.05
2023-07-07T01:32:15.134Z,20.28
2023-07-07T01:35:19.362Z,20.20
2023-07-07T01:38:23.272Z,20.48
2023-07-07T01:41:29.113Z,20.44
2023-07-07T01:44:33.619Z,20.67
2023-07-07T01:47:38.016Z,21.13
2023-07-07T01:50:46.470Z,21.11
2023-07-07T01:53:50.791Z,21.32
2023-07-07T01:56:56.859Z,21.22
2023-07-07T02:00:01.120Z,21.23
2023-07-07T02:03:05.474Z,20.87
2023-07-07T02:06:09.541Z,21.06
2023-07-07T02:09:13.450Z,20.70
2023-07-07T02:12:17.475Z,20.31
2023-07-07T02:15:22.920Z,20.32
2023-07-07T02:18:33.267Z,20.29
2023-07-07T02:21:37.392Z,20.23
2023-07-07T02:24:41.798Z,20.20
2023-07-07T02:27:45.843Z,20.28
2023-07-07T02:30:49.585Z,20.35
2023-07-07T02:33:55.754Z,19.60
2023-07-07T02:37:01.193Z,19.76
2023-07-07T02:40:05.587Z,20.16
2023-07-07T02:43:14.126Z,20.57
2023-07-07T02:46:20.611Z,20.68
2023-07-07T02:49:29.087Z,20.76
2023-07-07T02:52:34.347Z,20.43
2023-07-07T02:55:38.410Z,20.65
2023-07-07T02:58:42.001Z,20.89
2023-07-07T03:01:47.972Z,20.99
2023-07-07T03:04:52.276Z,20.80
2023-07-07T03:07:56.345Z,20.81
2023-07-07T03:11:01.209Z,20.56
2023-07-07T03:14:05.471Z,20.31
2023-07-07T03:17:09.928Z,20.51
2023-07-07T03:20:15.791Z,20.19
2023-07-07T03:23:21.434Z,20.41
2023-07-07T03:26:25.604Z,20.12
2023-07-07T03:29:29.330Z,20.29
2023-07-07T03:32:33.497Z,20.13
2023-07-07T03:35:37.656Z,20.29
2023-07-07T03:38:41.572Z,20.00
2023-07-07T03:41:45.636Z,20.38
2023-07-07T03:44:49.920Z,20.30
2023-07-07T03:47:53.894Z,20.34
2023-07-07T03:50:58.627Z,20.39
2023-07-07T03:54:02.754Z,20.17
2023-07-07T03:57:06.702Z,20.07
2023-07-07T04:00:10.452Z,19.93
2023-07-07T04:03:15.215Z,20.13
2023-07-07T04:06:20.700Z,20.30
2023-07-07T04:09:47.739Z,20.42
2023-07-07T04:12:49.971Z,20.42
2023-07-07T04:15:53.873Z,20.30
2023-07-07T04:22:26.894Z,20.49
2023-07-07T04:25:31.946Z,20.66
2023-07-07T04:28:38.143Z,20.92
2023-07-07T04:31:42.308Z,20.92
2023-07-07T04:34:46.820Z,21.05
2023-07-07T04:37:52.589Z,20.99
2023-07-07T04:40:57.235Z,21.28
2023-07-07T04:44:14.518Z,21.24
2023-07-07T04:47:20.573Z,21.31
2023-07-07T04:50:24.674Z,21.54
2023-07-07T04:53:28.877Z,21.53
2023-07-07T04:56:34.126Z,21.55
2023-07-07T04:59:45.774Z,21.54
2023-07-07T05:02:51.880Z,21.39
2023-07-07T05:05:56.135Z,21.56
2023-07-07T05:09:02.127Z,21.75
2023-07-07T05:12:06.317Z,21.71
2023-07-07T05:15:15.155Z,21.79
2023-07-07T05:18:21.215Z,21.70
2023-07-07T05:21:29.022Z,21.79
2023-07-07T05:24:58.738Z,21.89
2023-07-07T05:28:01.077Z,21.77
2023-07-07T05:31:18.404Z,21.76
2023-07-07T05:34:28.318Z,21.84
2023-07-07T05:37:32.673Z,22.20
2023-07-07T05:40:37.116Z,22.10
2023-07-07T05:43:42.877Z,22.33
2023-07-07T05:46:47.250Z,22.17
2023-07-07T05:49:51.671Z,22.40
2023-07-07T05:52:55.768Z,22.85
2023-07-07T05:55:59.527Z,23.87
2023-07-07T05:59:03.559Z,24.42
2023-07-07T06:05:31.748Z,24.38
2023-07-07T06:08:39.089Z,24.26
2023-07-07T06:11:42.941Z,25.25
2023-07-07T06:14:46.983Z,25.20
2023-07-07T06:17:51.691Z,25.40
2023-07-07T06:20:57.684Z,25.85
2023-07-07T06:24:02.264Z,26.09
2023-07-07T06:27:06.608Z,26.30
2023-07-07T06:30:13.922Z,26.41
2023-07-07T06:33:20.922Z,26.38
2023-07-07T06:36:25.505Z,26.44
2023-07-07T06:39:31.984Z,26.45
2023-07-07T06:42:36.030Z,26.30
2023-07-07T06:45:40.531Z,26.59
2023-07-07T06:48:46.889Z,26.40
2023-07-07T06:51:51.264Z,25.95
2023-07-07T06:55:09.741Z,25.89
2023-07-07T06:58:14.281Z,25.65
2023-07-07T07:01:20.013Z,25.66
2023-07-07T07:05:11.225Z,25.57
2023-07-07T07:08:00.266Z,25.71
2023-07-07T07:11:04.456Z,25.67
2023-07-07T07:14:10.786Z,25.23
2023-07-07T07:17:15.244Z,25.11
2023-07-07T07:20:28.755Z,24.96
2023-07-07T07:23:37.781Z,24.98
2023-07-07T07:26:54.648Z,24.68
2023-07-07T07:34:12.157Z,25.30
2023-07-07T07:36:48.187Z,25.01
2023-07-07T07:39:53.875Z,24.85
2023-07-07T07:43:01.263Z,24.38
2023-07-07T07:45:21.543Z,25.13
2023-07-07T07:46:09.229Z,24.80
2023-07-07T07:49:22.107Z,24.66
2023-07-07T07:52:37.885Z,24.37
2023-07-07T07:56:05.923Z,24.46
2023-07-07T07:59:12.383Z,24.19
2023-07-07T08:02:26.995Z,24.31
2023-07-07T08:05:31.218Z,24.63
2023-07-07T08:08:35.124Z,24.74
2023-07-07T08:11:39.186Z,24.24
2023-07-07T08:14:43.572Z,24.29
2023-07-07T08:17:48.669Z,23.65
2023-07-07T08:20:53.086Z,23.65
2023-07-07T08:23:57.217Z,24.44
2023-07-07T08:27:38.178Z,24.57
2023-07-07T08:30:25.407Z,24.18
2023-07-07T08:33:29.664Z,24.19
2023-07-07T08:36:33.557Z,24.14
2023-07-07T08:39:37.565Z,24.18
2023-07-07T08:42:41.577Z,24.35
2023-07-07T08:45:45.595Z,24.12
2023-07-07T08:48:49.612Z,24.04
2023-07-07T08:51:53.503Z,24.07
2023-07-07T08:54:57.774Z,24.40
2023-07-07T08:58:02.077Z,24.81
2023-07-07T09:01:06.399Z,24.81
2023-07-07T09:04:10.747Z,25.13
2023-07-07T09:07:15.095Z,24.85
2023-07-07T09:10:18.697Z,24.61
2023-07-07T09:13:22.799Z,25.18
2023-07-07T09:16:26.913Z,24.85
2023-07-07T09:19:31.059Z,24.39
2023-07-07T09:22:35.434Z,24.68
2023-07-07T09:25:49.620Z,24.95
2023-07-07T09:28:54.449Z,24.43
2023-07-07T09:31:58.527Z,25.13
2023-07-07T09:38:24.653Z,25.83
2023-07-07T09:41:28.757Z,25.79
2023-07-07T09:44:32.963Z,25.92
2023-07-07T09:47:38.594Z,25.73
2023-07-07T09:50:44.601Z,25.74
2023-07-07T09:53:48.635Z,25.51
2023-07-07T09:56:52.498Z,25.61
2023-07-07T09:59:56.772Z,25.42
2023-07-07T10:03:00.745Z,25.89
2023-07-07T10:06:05.108Z,26.02
2023-07-07T10:09:09.371Z,26.30
2023-07-07T10:12:23.793Z,26.53
2023-07-07T10:15:30.293Z,26.62
2023-07-07T10:18:45.140Z,26.73
2023-07-07T10:21:57.050Z,26.67
2023-07-07T10:25:00.815Z,26.53
2023-07-07T10:28:14.230Z,26.18
2023-07-07T10:31:18.305Z,26.35
2023-07-07T10:34:22.940Z,26.53
2023-07-07T10:37:27.473Z,26.52
2023-07-07T10:40:31.539Z,26.50
2023-07-07T10:43:35.643Z,26.75
2023-07-07T10:46:39.305Z,26.61
2023-07-07T10:49:43.318Z,26.15
2023-07-07T10:55:55.947Z,26.37
2023-07-07T10:59:00.118Z,26.65
2023-07-07T11:02:04.111Z,26.81
2023-07-07T11:05:08.742Z,26.79
2023-07-07T11:08:12.723Z,26.48
2023-07-07T11:11:16.641Z,26.67
2023-07-07T11:14:20.790Z,26.68
2023-07-07T11:17:24.736Z,26.75
2023-07-07T11:20:29.877Z,26.74
2023-07-07T11:23:34.101Z,26.83
2023-07-07T11:26:38.560Z,27.04
2023-07-07T11:29:42.777Z,26.92
2023-07-07T11:32:46.840Z,26.98
2023-07-07T11:35:50.589Z,26.99
2023-07-07T11:38:54.630Z,26.41
2023-07-07T11:41:58.804Z,26.83
2023-07-07T11:45:03.017Z,26.88
2023-07-07T11:48:07.074Z,26.76
2023-07-07T11:51:11.466Z,26.80
2023-07-07T11:54:17.814Z,26.84
2023-07-07T11:57:22.144Z,26.84
2023-07-07T12:00:27.036Z,26.80
2023-07-07T12:03:31.037Z,26.89
2023-07-07T12:06:35.400Z,26.92
2023-07-07T12:09:39.768Z,27.17
2023-07-07T12:12:43.808Z,27.20
2023-07-07T12:15:47.669Z,27.33
2023-07-07T12:18:53.470Z,27.17
2023-07-07T12:21:57.279Z,27.32
2023-07-07T12:25:01.607Z,27.22
2023-07-07T12:28:05.571Z,27.46
2023-07-07T12:31:09.889Z,26.95
2023-07-07T12:34:13.733Z,27.35
2023-07-07T12:37:17.843Z,27.70
2023-07-07T12:40:30.770Z,27.85
2023-07-07T12:43:34.858Z,27.45
2023-07-07T12:46:40.615Z,27.24
2023-07-07T12:49:44.422Z,27.17
2023-07-07T12:52:48.390Z,27.73
2023-07-07T12:55:52.869Z,28.30
2023-07-07T12:58:56.712Z,28.62
2023-07-07T13:02:00.701Z,28.47
2023-07-07T13:05:04.794Z,28.87
2023-07-07T13:08:09.290Z,29.17
2023-07-07T13:11:13.196Z,29.02
2023-07-07T13:14:17.318Z,29.25
2023-07-07T13:17:22.132Z,29.62
2023-07-07T13:20:26.255Z,29.90
2023-07-07T13:23:30.635Z,29.75
2023-07-07T13:26:34.735Z,30.22
2023-07-07T13:29:43.281Z,30.20
2023-07-07T13:32:48.856Z,30.37
2023-07-07T13:35:52.900Z,30.47
2023-07-07T13:38:57.301Z,29.64
2023-07-07T13:42:01.575Z,30.14
2023-07-07T13:45:05.266Z,30.11
2023-07-07T13:48:10.864Z,30.20
2023-07-07T13:51:14.799Z,30.22
2023-07-07T13:54:18.562Z,30.17
2023-07-07T13:57:22.702Z,30.44
2023-07-07T14:00:26.820Z,30.24
2023-07-07T14:03:30.873Z,29.65
2023-07-07T14:06:35.327Z,30.02
2023-07-07T14:09:39.457Z,29.86
2023-07-07T14:12:43.449Z,29.95
2023-07-07T14:15:47.348Z,29.51
2023-07-07T14:18:51.498Z,29.85
2023-07-07T14:21:55.442Z,30.08
2023-07-07T14:24:59.338Z,30.02
2023-07-07T14:28:03.289Z,29.73
2023-07-07T14:31:07.644Z,29.38
2023-07-07T14:34:11.582Z,29.51
2023-07-07T14:37:15.804Z,29.51
2023-07-07T14:40:19.659Z,29.60
2023-07-07T14:43:24.107Z,29.53
2023-07-07T14:46:31.566Z,29.38
2023-07-07T14:49:35.802Z,29.60
2023-07-07T14:52:39.840Z,29.51
2023-07-07T14:55:43.785Z,29.20
2023-07-07T14:58:47.902Z,29.37
2023-07-07T15:01:51.968Z,29.68
2023-07-07T15:04:56.023Z,29.37
2023-07-07T15:07:59.831Z,29.36
2023-07-07T15:11:04.227Z,29.99
2023-07-07T15:14:08.611Z,30.29
2023-07-07T15:17:12.524Z,30.46
2023-07-07T15:20:16.492Z,30.58
2023-07-07T15:23:20.689Z,30.71
2023-07-07T15:29:47.591Z,30.43
2023-07-07T15:32:51.598Z,30.54
2023-07-07T15:35:55.478Z,30.27
2023-07-07T15:38:59.700Z,30.41
2023-07-07T15:42:04.128Z,29.81
2023-07-07T15:45:08.104Z,29.98
2023-07-07T15:48:13.693Z,30.56
2023-07-07T15:51:18.675Z,30.89
2023-07-07T15:54:22.610Z,30.77
2023-07-07T15:57:26.796Z,29.75
2023-07-07T16:00:30.721Z,30.33
2023-07-07T16:03:39.256Z,30.41
2023-07-07T16:06:43.314Z,29.92
2023-07-07T16:09:47.529Z,30.53
2023-07-07T16:12:56.009Z,30.69
2023-07-07T16:16:00.410Z,30.60
2023-07-07T16:19:04.939Z,30.72
2023-07-07T16:22:09.469Z,30.66
2023-07-07T16:25:13.284Z,30.53
2023-07-07T16:28:17.398Z,30.48
2023-07-07T16:31:21.797Z,30.50
2023-07-07T16:34:25.645Z,30.55
2023-07-07T16:40:51.595Z,30.47
2023-07-07T16:43:55.614Z,30.50
2023-07-07T16:46:59.563Z,30.55
2023-07-07T16:50:03.508Z,30.52
2023-07-07T16:53:08.819Z,30.02
2023-07-07T16:56:22.172Z,30.07
2023-07-07T16:59:26.501Z,30.14
2023-07-07T17:02:30.725Z,30.20
2023-07-07T17:09:00.061Z,30.23
2023-07-07T17:12:04.833Z,30.12
2023-07-07T17:15:08.752Z,29.95
2023-07-07T17:18:12.874Z,29.95
2023-07-07T17:21:16.824Z,29.93
2023-07-07T17:24:20.959Z,30.04
2023-07-07T17:27:25.048Z,30.01
2023-07-07T17:30:29.276Z,29.77
2023-07-07T17:33:33.263Z,29.78
2023-07-07T17:36:38.752Z,29.48
2023-07-07T17:39:43.012Z,29.53
2023-07-07T17:42:46.888Z,29.58
2023-07-07T17:45:50.708Z,29.76
2023-07-07T17:48:55.012Z,29.52
2023-07-07T17:51:59.100Z,29.52
2023-07-07T17:55:03.219Z,29.12
2023-07-07T17:58:07.113Z,28.98
2023-07-07T18:01:11.184Z,28.75
2023-07-07T18:04:16.649Z,28.92
2023-07-07T18:07:20.801Z,29.11
2023-07-07T18:10:24.995Z,28.90
2023-07-07T18:17:03.412Z,28.71
2023-07-07T18:20:29.413Z,28.97
2023-07-07T18:23:38.786Z,28.79
2023-07-07T18:26:44.402Z,28.89
2023-07-07T18:29:50.701Z,28.64
2023-07-07T18:32:54.870Z,28.81
2023-07-07T18:35:59.011Z,28.62
2023-07-07T18:39:03.083Z,28.57
2023-07-07T18:42:07.107Z,28.61
2023-07-07T18:45:10.877Z,28.32
2023-07-07T18:48:15.132Z,27.91
2023-07-07T18:51:19.565Z,27.83
2023-07-07T18:54:23.558Z,27.93
2023-07-07T18:57:27.445Z,28.27
2023-07-07T19:00:31.458Z,28.02
2023-07-07T19:03:35.551Z,27.84
2023-07-07T19:06:39.826Z,28.06
2023-07-07T19:09:43.746Z,28.23
2023-07-07T19:12:47.881Z,27.67
2023-07-07T19:15:52.168Z,27.47
2023-07-07T19:18:56.020Z,27.77
2023-07-07T19:22:00.153Z,28.08
2023-07-07T19:25:03.887Z,27.78
2023-07-07T19:28:09.410Z,27.41
2023-07-07T19:31:13.703Z,27.33
2023-07-07T19:34:17.741Z,27.24
2023-07-07T19:37:21.825Z,27.18
2023-07-07T19:40:25.659Z,27.18
2023-07-07T19:43:29.822Z,27.74
2023-07-07T19:49:55.801Z,27.61
2023-07-07T19:52:59.933Z,27.30
2023-07-07T19:56:03.960Z,27.08
2023-07-07T19:59:08.126Z,27.58
2023-07-07T20:02:12.300Z,27.66
2023-07-07T20:05:16.341Z,27.05
2023-07-07T20:08:20.069Z,27.16
2023-07-07T20:11:23.982Z,26.52
2023-07-07T20:14:28.036Z,26.82
2023-07-07T20:17:32.081Z,27.21
2023-07-07T20:20:39.079Z,27.16
2023-07-07T20:23:42.989Z,27.27
2023-07-07T20:26:48.027Z,27.10
2023-07-07T20:29:52.871Z,26.81
2023-07-07T20:32:56.778Z,26.72
2023-07-07T20:36:00.969Z,26.66
2023-07-07T20:39:05.285Z,26.31
2023-07-07T20:42:09.226Z,26.78
2023-07-07T20:45:13.296Z,26.79
2023-07-07T20:48:17.530Z,26.68
2023-07-07T20:51:21.532Z,27.03
2023-07-07T20:54:25.352Z,26.54
2023-07-07T20:57:28.898Z,26.37
2023-07-07T21:00:33.149Z,26.53
2023-07-07T21:03:37.183Z,26.50
2023-07-07T21:06:40.998Z,26.46
2023-07-07T21:09:44.935Z,26.36
2023-07-07T21:12:48.907Z,26.03
2023-07-07T21:15:55.369Z,25.51
2023-07-07T21:18:59.476Z,25.99
2023-07-07T21:22:03.361Z,26.23
2023-07-07T21:25:07.357Z,25.94
2023-07-07T21:28:11.304Z,26.04
2023-07-07T21:31:15.490Z,25.85
2023-07-07T21:34:19.396Z,26.21
2023-07-07T21:37:23.461Z,26.20
2023-07-07T21:40:27.410Z,26.23
2023-07-07T21:43:31.525Z,26.38
2023-07-07T21:46:36.467Z,26.23
2023-07-07T21:49:40.767Z,26.10
2023-07-07T21:52:44.531Z,26.26
2023-07-07T21:55:48.424Z,25.85
2023-07-07T21:58:52.488Z,25.71
2023-07-07T22:01:56.549Z,25.47
2023-07-07T22:05:01.444Z,25.90
2023-07-07T22:08:05.601Z,25.20
2023-07-07T22:11:09.491Z,24.93
2023-07-07T22:14:14.024Z,25.57
2023-07-07T22:17:18.405Z,24.97
2023-07-07T22:20:22.152Z,25.37
2023-07-07T22:23:26.254Z,25.45
2023-07-07T22:26:30.152Z,25.40
2023-07-07T22:29:33.771Z,25.11
2023-07-07T22:32:38.248Z,25.50
2023-07-07T22:35:42.332Z,25.32
2023-07-07T22:38:46.464Z,25.14
2023-07-07T22:41:50.845Z,25.34
2023-07-07T22:44:54.921Z,25.19
2023-07-07T22:47:59.007Z,25.11
2023-07-07T22:51:02.887Z,24.71
2023-07-07T22:54:06.710Z,24.83
2023-07-07T22:57:10.618Z,25.26
2023-07-07T23:00:14.642Z,25.16
2023-07-07T23:03:18.584Z,25.45
2023-07-07T23:06:22.689Z,25.38
2023-07-07T23:09:26.768Z,25.54
2023-07-07T23:12:30.900Z,25.03
2023-07-07T23:15:34.793Z,25.01
2023-07-07T23:18:40.756Z,25.07
2023-07-07T23:21:44.889Z,25.18
2023-07-07T23:24:49.101Z,25.44
2023-07-07T23:27:53.091Z,25.34
2023-07-07T23:30:57.195Z,24.99
2023-07-07T23:34:01.106Z,25.12
2023-07-07T23:37:05.323Z,24.99
2023-07-07T23:40:09.184Z,25.18
2023-07-07T23:43:13.224Z,25.36
2023-07-07T23:46:19.162Z,25.29
2023-07-07T23:49:23.302Z,25.13
2023-07-07T23:52:27.435Z,24.67
2023-07-07T23:55:31.534Z,24.41
2023-07-07T23:58:35.515Z,24.97
